Time;durP1;ratioP1;P1;durP2;ratioP2;P2;SDS_P1;SDS_P2;PMS_P1;PMS_P2;Temp;Humidity;BMP_temperature;BMP_pressure;BME280_temperature;BME280_humidity;BME280_pressure;Samples;Min_cycle;Max_cycle;Signal;HPM_P1;HPM_P2
2021/06/13 00:01:10;;;;;;;8.88;7.15;;;13.10;99.90;;;;;;5052854;28;20059;-72
2021/06/13 00:03:37;;;;;;;9.00;7.18;;;13.10;99.90;;;;;;5053322;28;20030;-72
2021/06/13 00:06:03;;;;;;;10.35;8.10;;;13.10;99.90;;;;;;5052977;28;20436;-72
2021/06/13 00:08:29;;;;;;;9.07;7.15;;;13.10;99.90;;;;;;5053100;28;20071;-72
2021/06/13 00:10:56;;;;;;;11.38;7.93;;;13.10;99.90;;;;;;5052471;28;20036;-72
2021/06/13 00:13:22;;;;;;;10.65;7.30;;;13.10;99.90;;;;;;5050691;28;20040;-72
2021/06/13 00:15:48;;;;;;;9.82;7.32;;;13.10;99.90;;;;;;5052800;28;20021;-72
2021/06/13 00:18:14;;;;;;;9.27;7.38;;;13.00;99.90;;;;;;5044788;28;20526;-73
2021/06/13 00:20:39;;;;;;;8.57;7.18;;;13.10;99.90;;;;;;5031790;28;20028;-72
2021/06/13 00:23:05;;;;;;;10.80;7.65;;;13.00;99.90;;;;;;5031336;28;20478;-72
2021/06/13 00:25:31;;;;;;;9.00;7.03;;;13.10;99.90;;;;;;5030917;28;20025;-72
2021/06/13 00:27:56;;;;;;;9.32;7.65;;;13.00;99.90;;;;;;5030798;28;20037;-72
2021/06/13 00:30:23;;;;;;;9.02;7.28;;;13.00;99.90;;;;;;5038519;28;20382;-72
2021/06/13 00:32:49;;;;;;;9.23;6.55;;;13.00;99.90;;;;;;5050641;28;20505;-72
2021/06/13 00:35:16;;;;;;;10.63;6.90;;;13.00;99.90;;;;;;5050584;28;20029;-72
2021/06/13 00:37:42;;;;;;;9.88;7.55;;;13.00;99.90;;;;;;5051664;28;20025;-73
2021/06/13 00:40:08;;;;;;;13.85;7.65;;;13.00;99.90;;;;;;5052653;28;20108;-72
2021/06/13 00:42:35;;;;;;;9.32;6.97;;;12.90;99.90;;;;;;5052708;28;20036;-72
2021/06/13 00:45:01;;;;;;;12.90;8.07;;;13.00;99.90;;;;;;5054379;28;20086;-73
2021/06/13 00:47:26;;;;;;;9.48;7.65;;;13.00;99.90;;;;;;5056938;28;20029;-72
2021/06/13 00:49:54;;;;;;;8.93;7.55;;;13.00;99.90;;;;;;5056758;28;20025;-73
2021/06/13 00:52:19;;;;;;;9.43;7.10;;;13.10;99.90;;;;;;5056817;28;20017;-72
2021/06/13 00:54:46;;;;;;;12.48;7.97;;;13.00;99.90;;;;;;5056641;28;20029;-72
2021/06/13 00:57:11;;;;;;;8.30;6.72;;;13.00;99.90;;;;;;5055434;28;20116;-72
2021/06/13 00:59:37;;;;;;;9.73;7.05;;;13.00;99.90;;;;;;5056639;28;20100;-72
2021/06/13 01:02:03;;;;;;;9.73;7.22;;;13.00;99.90;;;;;;5056517;28;20017;-72
2021/06/13 01:04:28;;;;;;;10.68;7.25;;;13.00;99.90;;;;;;5056590;28;20543;-72
2021/06/13 01:07:03;;;;;;;9.90;8.02;;;13.00;99.90;;;;;;5048504;28;20064;-73
2021/06/13 01:09:33;;;;;;;10.95;7.75;;;13.00;99.90;;;;;;5036613;28;20387;-72
2021/06/13 01:12:09;;;;;;;11.88;7.03;;;13.00;99.90;;;;;;5036382;28;20475;-72
2021/06/13 01:14:38;;;;;;;9.32;6.70;;;13.00;99.90;;;;;;5036460;28;20490;-72
2021/06/13 01:17:11;;;;;;;10.85;7.32;;;12.90;99.90;;;;;;5036329;28;20079;-72
2021/06/13 01:19:53;;;;;;;10.32;6.97;;;12.90;99.90;;;;;;5036377;28;20040;-72
2021/06/13 01:22:37;;;;;;;9.45;6.32;;;12.90;99.90;;;;;;5036423;28;20433;-72
2021/06/13 01:25:05;;;;;;;9.82;6.57;;;12.90;99.90;;;;;;5032278;28;20032;-72
2021/06/13 01:27:56;;;;;;;6.93;5.80;;;12.80;99.90;;;;;;5035688;28;20441;-72
2021/06/13 01:30:24;;;;;;;7.53;5.45;;;12.80;99.90;;;;;;5035057;28;20479;-72
2021/06/13 01:32:50;;;;;;;9.18;5.10;;;12.80;99.90;;;;;;5035336;28;20017;-73
2021/06/13 01:35:21;;;;;;;8.15;5.32;;;12.80;99.90;;;;;;5032686;28;20565;-73
2021/06/13 01:37:51;;;;;;;5.78;4.55;;;12.80;99.90;;;;;;5035355;28;20510;-72
2021/06/13 01:40:19;;;;;;;5.65;4.70;;;12.70;99.90;;;;;;5035102;28;20029;-72
2021/06/13 01:42:49;;;;;;;6.40;5.00;;;12.70;99.90;;;;;;5035235;28;20018;-72
2021/06/13 01:45:19;;;;;;;8.43;4.68;;;12.60;99.90;;;;;;5034973;28;20041;-72
2021/06/13 01:47:46;;;;;;;19.15;5.22;;;12.60;99.90;;;;;;5033329;28;20026;-72
2021/06/13 01:50:12;;;;;;;4.95;4.05;;;12.50;99.90;;;;;;5034958;28;20534;-73
2021/06/13 01:52:38;;;;;;;5.25;3.97;;;12.50;99.90;;;;;;5035422;28;20139;-73
2021/06/13 01:55:06;;;;;;;9.18;4.13;;;12.40;99.90;;;;;;5033139;28;20071;-72
2021/06/13 01:57:32;;;;;;;5.95;4.00;;;12.40;99.90;;;;;;5035428;28;20060;-72
2021/06/13 01:59:59;;;;;;;7.10;3.83;;;12.30;99.90;;;;;;5035492;28;20025;-72
2021/06/13 02:02:27;;;;;;;6.05;3.72;;;12.20;99.90;;;;;;5035739;28;20025;-72
2021/06/13 02:04:53;;;;;;;4.38;3.97;;;12.20;99.90;;;;;;5035661;28;20067;-72
2021/06/13 02:07:20;;;;;;;7.03;3.75;;;12.20;99.90;;;;;;5046648;28;20433;-72
2021/06/13 02:09:47;;;;;;;4.60;3.97;;;12.10;99.90;;;;;;5055290;28;20078;-72
2021/06/13 02:12:14;;;;;;;9.43;3.53;;;12.10;99.90;;;;;;5055257;28;20021;-72
2021/06/13 02:14:44;;;;;;;7.90;4.07;;;12.00;99.90;;;;;;5055140;28;20033;-72
2021/06/13 02:17:10;;;;;;;12.95;4.13;;;11.90;99.90;;;;;;5053886;28;20450;-72
2021/06/13 02:19:38;;;;;;;8.00;4.20;;;11.90;99.90;;;;;;5055130;28;20028;-72
2021/06/13 02:22:05;;;;;;;4.35;3.33;;;11.80;99.90;;;;;;5053791;28;20025;-72
2021/06/13 02:24:36;;;;;;;6.32;3.45;;;11.80;99.90;;;;;;5055022;28;20021;-72
2021/06/13 02:27:04;;;;;;;6.97;3.63;;;11.70;99.90;;;;;;5054636;28;20029;-72
2021/06/13 02:29:31;;;;;;;5.35;3.58;;;11.70;99.90;;;;;;5054788;28;20397;-72
2021/06/13 02:31:58;;;;;;;4.03;3.63;;;11.70;99.90;;;;;;5054858;28;20021;-72
2021/06/13 02:34:26;;;;;;;6.85;3.85;;;11.70;99.90;;;;;;5053306;28;20040;-72
2021/06/13 02:36:53;;;;;;;7.40;4.20;;;11.60;99.90;;;;;;5054825;28;20033;-73
2021/06/13 02:39:21;;;;;;;6.97;3.95;;;11.60;99.90;;;;;;5053243;28;20029;-72
2021/06/13 02:41:48;;;;;;;9.73;4.60;;;11.50;99.90;;;;;;5054443;28;20390;-72
2021/06/13 02:44:13;;;;;;;6.28;4.28;;;11.40;99.90;;;;;;5053355;28;20036;-72
2021/06/13 02:46:39;;;;;;;6.15;4.85;;;11.40;99.90;;;;;;5054785;28;20017;-72
2021/06/13 02:49:10;;;;;;;5.88;4.25;;;11.30;99.90;;;;;;5054164;28;20090;-72
2021/06/13 02:51:39;;;;;;;8.40;4.18;;;11.30;99.90;;;;;;5054627;28;20021;-72
2021/06/13 02:54:09;;;;;;;7.13;3.45;;;11.40;99.90;;;;;;5054294;28;20444;-72
2021/06/13 02:56:42;;;;;;;5.18;3.20;;;11.30;99.90;;;;;;5054542;28;20035;-72
2021/06/13 02:59:26;;;;;;;3.95;3.50;;;11.20;99.90;;;;;;5053023;28;20112;-72
2021/06/13 03:01:54;;;;;;;9.45;3.55;;;11.30;99.90;;;;;;5054371;28;20163;-72
2021/06/13 03:04:22;;;;;;;5.93;3.60;;;11.20;99.90;;;;;;5054106;28;20071;-72
2021/06/13 03:06:51;;;;;;;9.55;3.60;;;11.20;99.90;;;;;;5052592;28;20017;-72
2021/06/13 03:09:18;;;;;;;4.00;3.60;;;11.20;99.90;;;;;;5054198;28;20025;-72
2021/06/13 03:11:45;;;;;;;6.90;3.65;;;11.20;99.90;;;;;;5054055;28;20052;-72
2021/06/13 03:14:11;;;;;;;8.02;4.22;;;11.20;99.90;;;;;;5052773;28;20039;-72
2021/06/13 03:16:38;;;;;;;8.90;4.22;;;11.20;99.90;;;;;;5054194;28;20021;-72
2021/06/13 03:19:04;;;;;;;7.20;4.10;;;11.20;99.90;;;;;;5053681;28;20504;-72
2021/06/13 03:21:30;;;;;;;5.55;3.92;;;11.20;99.90;;;;;;5054051;28;20025;-72
2021/06/13 03:23:56;;;;;;;6.93;4.57;;;11.20;99.90;;;;;;5052344;28;20080;-72
2021/06/13 03:26:23;;;;;;;5.13;3.90;;;11.30;99.90;;;;;;5053935;28;20024;-72
2021/06/13 03:28:54;;;;;;;7.60;3.90;;;11.30;99.90;;;;;;5052510;28;20033;-72
2021/06/13 03:31:20;;;;;;;6.78;4.05;;;11.30;99.90;;;;;;5053865;28;20017;-72
2021/06/13 03:33:48;;;;;;;7.88;4.30;;;11.30;99.90;;;;;;5053217;28;20041;-72
2021/06/13 03:36:15;;;;;;;5.18;3.97;;;11.40;99.90;;;;;;5053665;28;20025;-72
2021/06/13 03:38:43;;;;;;;6.05;4.10;;;11.40;99.90;;;;;;5053775;28;20029;-72
2021/06/13 03:41:10;;;;;;;5.22;3.90;;;11.40;99.90;;;;;;5053229;28;20028;-72
2021/06/13 03:43:36;;;;;;;5.70;4.30;;;11.40;99.90;;;;;;5053640;28;20021;-72
2021/06/13 03:46:02;;;;;;;7.90;4.32;;;11.40;99.90;;;;;;5053801;28;20032;-72
2021/06/13 03:48:28;;;;;;;5.78;3.90;;;11.40;99.90;;;;;;5053093;28;20029;-73
2021/06/13 03:50:56;;;;;;;8.23;3.75;;;11.30;99.90;;;;;;5053370;28;20489;-73
2021/06/13 03:53:22;;;;;;;9.18;4.47;;;11.40;99.90;;;;;;5052075;28;20436;-74
2021/06/13 03:55:49;;;;;;;6.60;4.28;;;11.40;99.90;;;;;;5053356;28;20096;-73
2021/06/13 03:58:16;;;;;;;8.48;4.30;;;11.50;99.90;;;;;;5053306;28;20021;-74
2021/06/13 04:00:44;;;;;;;7.00;4.32;;;11.50;99.90;;;;;;5053288;28;20053;-73
2021/06/13 04:03:10;;;;;;;8.43;4.00;;;11.60;99.90;;;;;;5052734;28;20036;-73
2021/06/13 04:05:39;;;;;;;6.35;4.13;;;11.60;99.90;;;;;;5053217;28;20036;-72
2021/06/13 04:08:08;;;;;;;7.18;4.35;;;11.60;99.90;;;;;;5052933;28;20028;-73
2021/06/13 04:10:34;;;;;;;10.00;5.15;;;11.60;99.90;;;;;;5053123;28;20017;-73
2021/06/13 04:13:01;;;;;;;7.10;4.03;;;11.70;99.90;;;;;;5052748;28;20021;-73
2021/06/13 04:15:28;;;;;;;11.05;4.32;;;11.80;99.90;;;;;;5052942;28;20037;-73
2021/06/13 04:17:54;;;;;;;10.38;4.80;;;11.80;99.90;;;;;;5050189;28;20024;-73
2021/06/13 04:20:20;;;;;;;5.60;4.30;;;11.80;99.90;;;;;;5032736;28;20112;-73
2021/06/13 04:22:46;;;;;;;8.77;5.03;;;11.90;99.90;;;;;;5033069;28;20105;-73
2021/06/13 04:25:13;;;;;;;9.07;4.38;;;11.90;99.90;;;;;;5032964;28;20068;-73
2021/06/13 04:27:40;;;;;;;8.82;4.43;;;12.00;99.90;;;;;;5049310;28;20087;-73
2021/06/13 04:30:07;;;;;;;8.20;4.38;;;12.00;99.90;;;;;;5052703;28;20049;-74
2021/06/13 04:32:34;;;;;;;6.70;4.20;;;12.10;99.90;;;;;;5052400;28;20051;-74
2021/06/13 04:35:00;;;;;;;9.27;4.20;;;12.10;99.90;;;;;;5052433;28;20043;-73
2021/06/13 04:37:25;;;;;;;7.38;4.13;;;12.20;99.90;;;;;;5052791;28;20029;-74
2021/06/13 04:39:51;;;;;;;8.80;4.68;;;12.20;99.90;;;;;;5052726;28;20033;-73
2021/06/13 04:42:17;;;;;;;7.68;4.80;;;12.10;99.90;;;;;;5052756;28;20025;-74
2021/06/13 04:44:43;;;;;;;7.40;4.47;;;12.10;99.90;;;;;;5052627;28;20065;-73
2021/06/13 04:47:10;;;;;;;5.88;4.20;;;12.20;99.90;;;;;;5051374;28;20053;-74
2021/06/13 04:49:36;;;;;;;8.07;4.03;;;12.30;99.90;;;;;;5052515;28;20147;-74
2021/06/13 04:52:05;;;;;;;9.05;4.63;;;12.20;99.90;;;;;;5052613;28;20036;-74
2021/06/13 04:54:35;;;;;;;5.82;4.25;;;12.30;99.90;;;;;;5052348;28;20491;-74
2021/06/13 04:57:28;;;;;;;5.88;3.50;;;12.30;99.90;;;;;;5051327;28;20021;-74
2021/06/13 04:59:53;;;;;;;6.72;3.83;;;12.40;99.90;;;;;;5052626;28;20029;-73
2021/06/13 05:02:19;;;;;;;7.55;5.00;;;12.50;99.90;;;;;;5052264;28;20218;-74
2021/06/13 05:04:45;;;;;;;11.25;4.30;;;12.40;99.90;;;;;;5052585;28;20047;-73
2021/06/13 05:07:11;;;;;;;5.50;3.92;;;12.50;99.90;;;;;;5051122;28;20025;-74
2021/06/13 05:09:37;;;;;;;8.75;3.92;;;12.60;99.90;;;;;;5052517;28;20029;-74
2021/06/13 05:12:03;;;;;;;7.63;3.97;;;12.50;99.90;;;;;;5052406;28;20018;-74
2021/06/13 05:14:28;;;;;;;5.50;3.65;;;12.40;99.90;;;;;;5052340;28;20111;-74
2021/06/13 05:16:54;;;;;;;4.07;3.42;;;12.40;99.90;;;;;;5050966;28;20120;-74
2021/06/13 05:19:20;;;;;;;5.97;3.83;;;12.50;99.90;;;;;;5044057;28;20075;-73
2021/06/13 05:21:45;;;;;;;4.55;3.80;;;12.60;99.90;;;;;;5052226;28;20055;-74
2021/06/13 05:24:11;;;;;;;8.15;3.63;;;12.50;99.90;;;;;;5052315;28;20027;-74
2021/06/13 05:26:37;;;;;;;5.90;3.72;;;12.70;99.90;;;;;;5051145;28;20023;-74
2021/06/13 05:29:03;;;;;;;5.43;3.65;;;12.90;99.90;;;;;;5051973;28;20033;-74
2021/06/13 05:31:29;;;;;;;5.38;3.17;;;13.10;99.90;;;;;;5055576;28;20028;-74
2021/06/13 05:33:54;;;;;;;4.53;3.30;;;13.00;99.90;;;;;;5040956;28;20082;-73
2021/06/13 05:36:20;;;;;;;7.88;3.60;;;13.00;99.30;;;;;;5037422;28;20025;-74
2021/06/13 05:38:46;;;;;;;5.07;2.97;;;12.90;94.30;;;;;;5055858;28;20037;-74
2021/06/13 05:41:13;;;;;;;8.40;3.20;;;12.90;95.80;;;;;;5055920;28;20032;-74
2021/06/13 05:43:40;;;;;;;6.30;3.20;;;13.00;99.70;;;;;;5054669;28;20021;-74
2021/06/13 05:46:07;;;;;;;4.35;2.28;;;13.00;99.90;;;;;;5056144;28;20490;-74
2021/06/13 05:48:33;;;;;;;7.13;3.88;;;13.10;97.40;;;;;;5055521;28;20505;-73
2021/06/13 05:51:00;;;;;;;6.20;3.47;;;13.10;94.90;;;;;;5055551;28;20021;-73
2021/06/13 05:53:26;;;;;;;7.00;3.28;;;13.00;94.80;;;;;;5055609;28;20020;-73
2021/06/13 05:55:51;;;;;;;4.13;2.60;;;13.10;96.30;;;;;;5055534;28;20028;-73
2021/06/13 05:58:18;;;;;;;7.35;3.67;;;13.00;96.00;;;;;;5055613;28;20382;-73
2021/06/13 06:00:44;;;;;;;7.00;3.33;;;13.10;97.20;;;;;;5054234;28;20031;-73
2021/06/13 06:03:10;;;;;;;5.45;3.30;;;13.00;96.70;;;;;;5055107;28;20029;-71
2021/06/13 06:05:36;;;;;;;4.32;3.08;;;13.00;96.80;;;;;;5054163;28;20558;-71
2021/06/13 06:08:02;;;;;;;5.05;3.08;;;13.00;98.10;;;;;;5055160;28;20049;-72
2021/06/13 06:10:30;;;;;;;8.95;4.38;;;13.00;99.30;;;;;;5042802;28;20372;-71
2021/06/13 06:12:58;;;;;;;6.00;3.47;;;13.00;99.90;;;;;;5034773;28;20071;-71
2021/06/13 06:15:26;;;;;;;3.38;2.88;;;13.10;99.90;;;;;;5044711;28;20097;-71
2021/06/13 06:17:52;;;;;;;5.05;3.25;;;13.20;99.20;;;;;;5045759;28;20032;-71
2021/06/13 06:20:21;;;;;;;5.82;2.85;;;13.10;94.50;;;;;;5044050;28;20025;-71
2021/06/13 06:22:47;;;;;;;7.20;3.08;;;13.00;92.10;;;;;;5044294;28;20430;-71
2021/06/13 06:25:13;;;;;;;6.38;3.22;;;13.00;95.50;;;;;;5043508;28;20075;-71
2021/06/13 06:27:39;;;;;;;4.53;2.70;;;12.80;96.30;;;;;;5045475;28;20032;-74
2021/06/13 06:30:08;;;;;;;6.40;3.33;;;12.80;98.60;;;;;;5044604;28;20448;-74
2021/06/13 06:32:34;;;;;;;6.38;3.88;;;12.70;98.50;;;;;;5044603;28;20052;-74
2021/06/13 06:34:59;;;;;;;5.93;3.38;;;12.60;98.10;;;;;;5044921;28;20037;-74
2021/06/13 06:37:25;;;;;;;5.15;3.00;;;12.50;98.80;;;;;;5044214;28;20017;-73
2021/06/13 06:39:51;;;;;;;7.07;3.40;;;12.60;97.40;;;;;;5045179;28;20037;-71
2021/06/13 06:42:16;;;;;;;4.75;2.72;;;12.60;97.80;;;;;;5042540;28;20057;-71
2021/06/13 06:44:42;;;;;;;7.40;3.22;;;12.70;93.70;;;;;;5043274;28;20029;-72
2021/06/13 06:47:08;;;;;;;7.18;3.00;;;12.80;92.10;;;;;;5046432;28;20058;-72
2021/06/13 06:49:34;;;;;;;6.20;3.95;;;13.20;86.40;;;;;;5045129;28;20463;-72
2021/06/13 06:52:00;;;;;;;5.93;2.72;;;13.50;85.50;;;;;;5047932;28;20041;-72
2021/06/13 06:54:27;;;;;;;7.13;3.20;;;13.40;80.40;;;;;;5054394;28;20573;-72
2021/06/13 06:56:52;;;;;;;6.05;3.20;;;13.20;85.20;;;;;;5053070;28;20386;-72
2021/06/13 06:59:18;;;;;;;5.07;3.38;;;13.10;89.90;;;;;;5054380;28;20021;-72
2021/06/13 07:01:44;;;;;;;7.82;2.97;;;13.10;91.60;;;;;;5054177;28;20032;-73
2021/06/13 07:04:10;;;;;;;4.40;3.00;;;13.10;92.70;;;;;;5041874;28;20410;-72
2021/06/13 07:06:36;;;;;;;6.95;3.15;;;13.10;90.20;;;;;;5041817;28;20037;-72
2021/06/13 07:09:02;;;;;;;10.00;3.17;;;13.30;91.10;;;;;;5037797;28;20029;-71
2021/06/13 07:11:28;;;;;;;5.20;3.00;;;13.40;89.30;;;;;;5037996;28;20530;-72
2021/06/13 07:13:54;;;;;;;6.30;2.75;;;13.20;85.20;;;;;;5041492;28;20167;-71
2021/06/13 07:16:19;;;;;;;5.72;3.03;;;13.20;83.90;;;;;;5042928;28;20024;-72
2021/06/13 07:18:45;;;;;;;8.90;2.72;;;13.10;85.30;;;;;;5041346;28;20021;-72
2021/06/13 07:21:11;;;;;;;4.30;3.03;;;13.00;83.00;;;;;;5041521;28;20104;-71
2021/06/13 07:23:36;;;;;;;3.33;2.97;;;13.00;85.30;;;;;;5045550;28;20029;-71
2021/06/13 07:26:03;;;;;;;5.47;2.70;;;12.80;86.50;;;;;;5040807;28;20037;-71
2021/06/13 07:28:31;;;;;;;6.20;3.00;;;12.70;88.90;;;;;;5039576;28;20095;-72
2021/06/13 07:30:57;;;;;;;3.75;3.38;;;12.80;87.20;;;;;;5048814;28;20029;-72
2021/06/13 07:33:26;;;;;;;5.25;3.00;;;12.80;87.50;;;;;;5053614;28;20035;-72
2021/06/13 07:35:53;;;;;;;5.03;2.75;;;13.10;88.30;;;;;;5053418;28;20528;-72
2021/06/13 07:38:18;;;;;;;9.18;3.10;;;13.40;86.00;;;;;;5049274;28;20021;-72
2021/06/13 07:40:44;;;;;;;7.90;2.70;;;13.60;82.80;;;;;;5033623;28;20360;-72
2021/06/13 07:43:10;;;;;;;8.60;3.08;;;13.70;79.30;;;;;;5044896;28;20025;-71
2021/06/13 07:45:35;;;;;;;3.90;2.38;;;13.60;77.70;;;;;;5053489;28;20036;-72
2021/06/13 07:48:04;;;;;;;5.03;2.70;;;13.40;74.80;;;;;;5053340;28;20090;-72
2021/06/13 07:50:29;;;;;;;6.03;2.25;;;13.40;76.80;;;;;;5047159;28;20105;-72
2021/06/13 07:52:55;;;;;;;4.32;2.35;;;13.50;73.80;;;;;;5040443;28;20439;-71
2021/06/13 07:55:21;;;;;;;4.95;2.63;;;13.50;72.20;;;;;;5037454;28;20095;-71
2021/06/13 07:57:46;;;;;;;3.33;2.50;;;13.50;73.40;;;;;;5044116;28;20021;-73
2021/06/13 08:00:15;;;;;;;4.57;2.80;;;13.40;74.20;;;;;;5040349;28;20108;-71
2021/06/13 08:02:41;;;;;;;5.88;3.00;;;13.70;76.00;;;;;;5049561;28;20036;-71
2021/06/13 08:05:11;;;;;;;3.03;2.22;;;13.70;73.70;;;;;;5053090;28;20478;-71
2021/06/13 08:07:37;;;;;;;5.65;2.90;;;13.90;73.20;;;;;;5053922;28;20115;-72
2021/06/13 08:10:09;;;;;;;7.18;2.42;;;13.90;73.90;;;;;;5050736;28;20021;-72
2021/06/13 08:12:35;;;;;;;4.60;2.40;;;13.70;71.80;;;;;;5044349;28;20382;-72
2021/06/13 08:15:01;;;;;;;2.13;1.77;;;13.60;71.80;;;;;;5039767;28;20044;-71
2021/06/13 08:17:27;;;;;;;10.30;3.60;;;13.50;71.70;;;;;;5038244;28;20025;-72
2021/06/13 08:19:52;;;;;;;6.68;2.53;;;13.40;71.10;;;;;;5041419;28;20036;-72
2021/06/13 08:22:18;;;;;;;5.05;1.85;;;13.50;70.60;;;;;;5040963;28;20083;-72
2021/06/13 08:24:44;;;;;;;7.90;2.42;;;13.40;69.70;;;;;;5037908;28;20555;-72
2021/06/13 08:27:10;;;;;;;5.55;2.30;;;13.30;69.70;;;;;;5041309;28;20013;-72
2021/06/13 08:29:35;;;;;;;8.05;2.30;;;13.40;68.60;;;;;;5031944;28;20558;-72
2021/06/13 08:32:01;;;;;;;2.53;2.05;;;13.50;69.30;;;;;;5041891;28;20032;-72
2021/06/13 08:34:27;;;;;;;4.43;2.50;;;13.80;65.50;;;;;;5035785;28;20033;-72
2021/06/13 08:36:54;;;;;;;4.63;2.05;;;14.00;67.90;;;;;;5038823;28;20025;-72
2021/06/13 08:39:20;;;;;;;5.68;2.30;;;13.90;64.80;;;;;;5040707;28;20031;-72
2021/06/13 08:41:45;;;;;;;5.22;2.78;;;14.00;65.60;;;;;;5041065;28;20045;-72
2021/06/13 08:44:11;;;;;;;3.50;1.80;;;14.20;67.00;;;;;;5033553;28;20029;-72
2021/06/13 08:46:38;;;;;;;6.28;2.20;;;14.10;63.50;;;;;;5039929;28;20037;-72
2021/06/13 08:49:04;;;;;;;3.78;1.63;;;14.10;63.40;;;;;;5036536;28;20021;-72
2021/06/13 08:51:31;;;;;;;3.67;1.42;;;14.20;64.20;;;;;;5039030;28;20044;-72
2021/06/13 08:53:57;;;;;;;4.32;2.10;;;14.00;63.20;;;;;;5040302;28;20376;-72
2021/06/13 08:56:23;;;;;;;4.15;1.88;;;14.10;64.50;;;;;;5036718;28;20064;-72
2021/06/13 08:58:51;;;;;;;3.97;2.20;;;14.00;64.50;;;;;;5040973;28;20064;-72
2021/06/13 09:01:17;;;;;;;9.43;2.03;;;14.20;65.90;;;;;;5042083;28;20041;-72
2021/06/13 09:03:43;;;;;;;3.80;2.20;;;14.00;65.40;;;;;;5037529;28;20382;-73
2021/06/13 09:06:11;;;;;;;5.50;1.90;;;14.20;66.40;;;;;;5033097;28;20546;-72
2021/06/13 09:08:38;;;;;;;10.43;3.63;;;14.30;67.70;;;;;;5033424;28;20392;-72
2021/06/13 09:11:06;;;;;;;6.00;2.00;;;14.40;65.80;;;;;;5037380;28;20057;-72
2021/06/13 09:13:34;;;;;;;5.80;2.08;;;14.50;65.90;;;;;;5042608;28;20420;-72
2021/06/13 09:16:06;;;;;;;5.97;2.22;;;14.40;65.20;;;;;;5053828;28;20098;-72
2021/06/13 09:18:43;;;;;;;;;;;14.30;65.70;;;;;;5053817;28;20096;-72
2021/06/13 09:21:22;;;;;;;4.82;2.33;;;14.30;65.70;;;;;;5050715;28;19908;-72
2021/06/13 09:23:48;;;;;;;3.28;1.70;;;14.30;66.00;;;;;;5035545;28;20383;-72
2021/06/13 09:26:17;;;;;;;3.53;1.90;;;14.20;65.50;;;;;;5035689;28;20017;-74
2021/06/13 09:28:45;;;;;;;5.80;2.13;;;14.40;67.00;;;;;;5035639;28;20030;-72
2021/06/13 09:31:21;;;;;;;5.22;2.00;;;14.40;66.20;;;;;;5036071;28;20025;-72
2021/06/13 09:33:49;;;;;;;6.13;2.50;;;14.30;66.10;;;;;;5049175;28;20017;-73
2021/06/13 09:36:22;;;;;;;3.65;2.05;;;14.50;64.90;;;;;;5054612;28;20044;-72
2021/06/13 09:38:51;;;;;;;5.05;2.72;;;14.40;65.60;;;;;;5054537;28;20029;-72
2021/06/13 09:41:20;;;;;;;4.05;1.98;;;14.50;65.80;;;;;;5055927;28;20094;-72
2021/06/13 09:43:49;;;;;;;2.38;1.85;;;14.60;68.50;;;;;;5055576;28;20025;-73
2021/06/13 09:46:17;;;;;;;3.63;2.38;;;14.60;66.20;;;;;;5055542;28;20033;-72
2021/06/13 09:48:44;;;;;;;6.78;2.30;;;14.60;65.40;;;;;;5055773;28;20027;-72
2021/06/13 09:51:24;;;;;;;4.85;1.80;;;14.70;67.30;;;;;;5055493;28;20028;-73
2021/06/13 09:53:55;;;;;;;4.15;1.92;;;14.90;67.70;;;;;;5055418;28;20017;-72
2021/06/13 09:56:26;;;;;;;5.28;2.40;;;14.90;64.50;;;;;;5049117;28;20028;-72
2021/06/13 09:59:06;;;;;;;4.85;2.13;;;14.90;64.50;;;;;;5053613;28;20025;-72
2021/06/13 10:01:46;;;;;;;5.60;2.45;;;14.70;64.10;;;;;;5040928;28;20041;-73
2021/06/13 10:04:17;;;;;;;2.85;2.15;;;14.80;64.10;;;;;;5051841;28;20028;-72
2021/06/13 10:06:46;;;;;;;4.32;1.83;;;14.70;63.80;;;;;;5051763;28;20029;-72
2021/06/13 10:09:12;;;;;;;3.88;1.88;;;14.60;64.10;;;;;;5033752;28;20033;-73
2021/06/13 10:11:39;;;;;;;4.75;2.17;;;14.30;65.20;;;;;;5033365;28;20473;-73
2021/06/13 10:14:07;;;;;;;6.05;1.92;;;14.20;67.10;;;;;;5047803;28;20127;-72
2021/06/13 10:16:52;;;;;;;4.80;2.40;;;14.20;66.20;;;;;;5044813;28;20030;-73
2021/06/13 10:19:25;;;;;;;4.43;2.42;;;14.40;67.20;;;;;;5038149;28;20025;-72
2021/06/13 10:21:57;;;;;;;5.72;2.28;;;14.60;66.50;;;;;;5042189;28;20045;-73
2021/06/13 10:24:25;;;;;;;8.07;3.13;;;14.80;65.50;;;;;;5042320;28;20021;-72
2021/06/13 10:26:57;;;;;;;8.18;2.60;;;14.90;63.50;;;;;;5044440;28;20806;-72
2021/06/13 10:29:25;;;;;;;6.57;2.58;;;15.10;64.30;;;;;;5036993;28;20020;-72
2021/06/13 10:31:55;;;;;;;6.13;2.58;;;14.90;63.90;;;;;;5038325;28;20564;-73
2021/06/13 10:34:20;;;;;;;4.40;1.85;;;14.80;63.20;;;;;;5040605;28;20116;-71
2021/06/13 10:36:46;;;;;;;4.55;2.30;;;14.70;63.00;;;;;;5037676;28;20111;-72
2021/06/13 10:39:16;;;;;;;4.53;2.38;;;14.80;64.10;;;;;;5040159;28;20370;-72
2021/06/13 10:41:44;;;;;;;5.20;2.38;;;14.70;64.30;;;;;;5040862;28;21135;-72
2021/06/13 10:44:13;;;;;;;8.82;3.00;;;14.80;65.30;;;;;;5039636;28;20033;-72
2021/06/13 10:47:12;;;;;;;4.50;2.40;;;15.00;64.60;;;;;;5040624;28;20643;-72
2021/06/13 10:49:40;;;;;;;6.07;2.40;;;15.10;65.80;;;;;;5042569;28;20018;-72
2021/06/13 10:52:11;;;;;;;8.77;2.65;;;15.00;65.00;;;;;;5040291;28;20028;-72
2021/06/13 10:54:41;;;;;;;4.97;2.30;;;14.90;64.80;;;;;;5039598;28;20064;-72
2021/06/13 10:57:13;;;;;;;5.25;2.22;;;14.90;64.90;;;;;;5040776;28;20063;-72
2021/06/13 10:59:40;;;;;;;3.72;2.45;;;15.10;66.10;;;;;;5037186;28;20033;-72
2021/06/13 11:02:17;;;;;;;5.53;2.22;;;15.20;64.10;;;;;;5038113;28;20029;-73
2021/06/13 11:05:05;;;;;;;3.70;1.85;;;15.40;63.30;;;;;;5040983;28;20105;-72
2021/06/13 11:07:34;;;;;;;5.47;2.80;;;15.20;61.20;;;;;;5038255;28;20070;-72
2021/06/13 11:10:06;;;;;;;4.22;2.28;;;15.20;61.60;;;;;;5039576;28;20114;-72
2021/06/13 11:12:58;;;;;;;4.27;2.27;;;15.10;61.20;;;;;;5039002;28;20032;-72
2021/06/13 11:16:02;;;;;;;8.23;2.63;;;15.20;60.80;;;;;;5041909;28;20033;-74
2021/06/13 11:18:22;;;;;;;7.47;2.30;;;15.30;62.10;;;;;;5033070;28;20029;-77
2021/06/13 11:20:51;;;;;;;2.92;2.50;;;15.40;62.40;;;;;;5038192;28;20017;-74
2021/06/13 11:23:23;;;;;;;6.93;2.45;;;15.70;64.00;;;;;;5041405;28;20025;-73
2021/06/13 11:25:51;;;;;;;4.57;2.20;;;15.70;62.50;;;;;;5039115;28;20112;-73
2021/06/13 11:28:33;;;;;;;5.65;2.83;;;15.60;62.20;;;;;;5047170;28;20018;-74
2021/06/13 11:31:08;;;;;;;8.35;2.38;;;15.90;62.70;;;;;;5038814;28;20158;-73
2021/06/13 11:33:34;;;;;;;8.52;2.90;;;15.70;60.40;;;;;;5052922;28;20052;-74
2021/06/13 11:36:04;;;;;;;8.40;2.72;;;15.90;60.40;;;;;;5053972;28;20037;-73
2021/06/13 11:38:32;;;;;;;4.93;2.03;;;16.00;60.90;;;;;;5053770;28;20035;-73
2021/06/13 11:41:00;;;;;;;4.05;2.08;;;16.10;59.90;;;;;;5054134;28;20096;-74
2021/06/13 11:43:36;;;;;;;2.85;2.17;;;16.00;60.10;;;;;;5053394;28;20074;-74
2021/06/13 11:46:06;;;;;;;5.97;2.03;;;16.00;59.50;;;;;;5053925;28;20036;-74
2021/06/13 11:48:33;;;;;;;4.95;2.17;;;16.20;61.00;;;;;;5042024;28;20033;-74
2021/06/13 11:51:12;;;;;;;4.93;2.38;;;15.90;59.90;;;;;;5037913;28;20049;-74
2021/06/13 11:54:05;;;;;;;8.05;2.17;;;15.90;61.80;;;;;;5040362;28;20037;-74
2021/06/13 11:56:34;;;;;;;6.93;2.40;;;15.80;59.00;;;;;;5036758;28;20159;-73
2021/06/13 11:59:11;;;;;;;5.55;2.10;;;15.90;60.20;;;;;;5047082;28;20025;-73
2021/06/13 12:01:38;;;;;;;4.63;2.60;;;16.10;61.50;;;;;;5044032;28;20021;-73
2021/06/13 12:04:12;;;;;;;7.18;2.20;;;16.40;61.50;;;;;;5039825;28;20017;-73
2021/06/13 12:06:38;;;;;;;7.57;2.58;;;16.50;60.10;;;;;;5049366;28;20035;-73
2021/06/13 12:09:16;;;;;;;6.35;2.40;;;16.50;60.40;;;;;;5053133;28;20385;-73
2021/06/13 12:11:45;;;;;;;6.15;2.60;;;16.10;59.40;;;;;;5042823;28;20030;-72
2021/06/13 12:14:24;;;;;;;8.05;2.92;;;16.10;59.60;;;;;;5042842;28;20044;-73
2021/06/13 12:17:01;;;;;;;5.47;2.53;;;15.80;60.80;;;;;;5049987;28;20021;-73
2021/06/13 12:19:39;;;;;;;5.95;2.40;;;15.70;62.20;;;;;;5053112;28;20028;-73
2021/06/13 12:27:27;;;;;;;6.72;2.35;;;16.40;58.30;;;;;;5046206;28;20036;-73
2021/06/13 12:29:53;;;;;;;4.45;2.25;;;16.50;58.40;;;;;;5049072;28;20025;-73
2021/06/13 12:32:19;;;;;;;6.63;2.28;;;16.40;58.90;;;;;;5041971;28;20025;-74
2021/06/13 12:34:49;;;;;;;3.10;1.85;;;16.00;58.60;;;;;;5039508;28;20041;-73
2021/06/13 12:37:23;;;;;;;6.38;1.65;;;15.90;59.20;;;;;;5040144;28;20385;-74
2021/06/13 12:40:10;;;;;;;4.88;2.53;;;15.80;59.80;;;;;;5033025;28;20541;-73
2021/06/13 12:42:37;;;;;;;4.07;1.85;;;15.70;59.80;;;;;;5037865;28;20092;-73
2021/06/13 12:45:12;;;;;;;5.88;2.28;;;15.60;59.40;;;;;;5051257;28;20059;-73
2021/06/13 12:47:40;;;;;;;6.15;2.33;;;15.70;59.40;;;;;;5042182;28;20128;-74
2021/06/13 12:50:08;;;;;;;5.20;2.30;;;15.60;59.70;;;;;;5047407;28;20109;-73
2021/06/13 12:52:36;;;;;;;5.60;2.00;;;15.50;58.70;;;;;;5034696;28;20030;-73
2021/06/13 12:55:05;;;;;;;3.60;1.77;;;15.60;59.50;;;;;;5034434;28;20041;-73
2021/06/13 12:57:32;;;;;;;7.20;2.80;;;15.30;58.40;;;;;;5048722;28;20017;-73